Terminal Aerodrome Forecast
Issued by NWS Wakefield, VA

Home | Current Version | Previous Version | Text Only | Print | Product List | Glossary On
Versions: 1 2 3 4 5 6 7 8 9 10 11 12 13 14 15 16 17 18 19 20 21 22 23
000
FTUS41 KAKQ 300520
TAFORF
TAF
KORF 300520Z 3006/0106 18006KT P6SM SCT250
     FM301300 19010KT P6SM SCT250
     FM301800 19011G18KT P6SM BKN250
     FM302300 20010KT P6SM BKN100=

USA.gov is the U.S. government's official web portal to all federal, state and local government web resources and services.